createdAt,value
2023-04-23T00:01:35.399Z,4.60
2023-04-23T00:03:37.891Z,3.85
2023-04-23T00:05:40.063Z,3.70
2023-04-23T00:07:42.484Z,2.78
2023-04-23T00:09:45.371Z,3.72
2023-04-23T00:11:47.320Z,3.45
2023-04-23T00:13:49.633Z,3.70
2023-04-23T00:15:51.706Z,4.22
2023-04-23T00:17:53.553Z,4.03
2023-04-23T00:19:55.266Z,3.45
2023-04-23T00:21:57.000Z,4.53
2023-04-23T00:23:58.733Z,2.97
2023-04-23T00:26:00.476Z,3.30
2023-04-23T00:28:02.398Z,3.40
2023-04-23T00:30:05.482Z,3.92
2023-04-23T00:32:07.957Z,4.00
2023-04-23T00:34:09.690Z,3.03
2023-04-23T00:36:11.446Z,3.20
2023-04-23T00:38:13.288Z,3.42
2023-04-23T00:40:15.075Z,4.00
2023-04-23T00:42:17.365Z,3.63
2023-04-23T00:44:19.048Z,3.88
2023-04-23T00:46:20.956Z,3.63
2023-04-23T00:48:22.795Z,4.03
2023-04-23T00:50:24.615Z,4.05
2023-04-23T00:52:26.606Z,3.88
2023-04-23T00:54:28.410Z,3.55
2023-04-23T00:56:30.215Z,3.67
2023-04-23T00:58:32.698Z,3.70
2023-04-23T01:00:38.945Z,4.38
2023-04-23T01:02:42.680Z,3.20
2023-04-23T01:04:45.563Z,5.80
2023-04-23T01:06:47.920Z,3.70
2023-04-23T01:08:49.790Z,3.75
2023-04-23T01:10:54.781Z,4.15
2023-04-23T01:12:59.322Z,3.97
2023-04-23T01:15:01.421Z,3.97
2023-04-23T01:17:03.401Z,4.15
2023-04-23T01:19:07.813Z,3.83
2023-04-23T01:21:11.934Z,3.58
2023-04-23T01:23:13.836Z,4.72
2023-04-23T01:25:15.677Z,4.35
2023-04-23T01:27:19.625Z,3.50
2023-04-23T01:29:21.596Z,3.78
2023-04-23T01:31:23.836Z,4.20
2023-04-23T01:33:26.387Z,4.38
2023-04-23T01:35:29.143Z,4.32
2023-04-23T01:37:31.764Z,4.47
2023-04-23T01:39:33.531Z,4.65
2023-04-23T01:41:36.110Z,4.60
2023-04-23T01:43:38.130Z,5.05
2023-04-23T01:45:39.960Z,4.70
2023-04-23T01:47:42.139Z,3.83
2023-04-23T01:49:43.855Z,4.35
2023-04-23T01:51:45.767Z,3.63
2023-04-23T01:53:50.469Z,3.90
2023-04-23T01:55:52.714Z,2.88
2023-04-23T01:57:54.461Z,3.58
2023-04-23T02:00:04.985Z,3.80
2023-04-23T02:02:11.064Z,3.75
2023-04-23T02:04:14.219Z,3.08
2023-04-23T02:06:16.182Z,2.50
2023-04-23T02:08:20.980Z,3.28
2023-04-23T02:10:22.757Z,3.45
2023-04-23T02:12:25.012Z,3.03
2023-04-23T02:14:26.662Z,7.43
2023-04-23T02:16:28.737Z,2.97
2023-04-23T02:18:30.757Z,3.25
2023-04-23T02:20:32.643Z,3.30
2023-04-23T02:22:34.734Z,3.00
2023-04-23T02:24:36.693Z,2.63
2023-04-23T02:26:38.490Z,3.13
2023-04-23T02:28:40.216Z,3.22
2023-04-23T02:30:46.159Z,3.63
2023-04-23T02:32:47.933Z,3.65
2023-04-23T02:34:49.696Z,3.17
2023-04-23T02:36:51.859Z,2.80
2023-04-23T02:38:53.543Z,3.03
2023-04-23T02:40:55.290Z,3.42
2023-04-23T02:42:57.125Z,3.00
2023-04-23T02:44:58.825Z,4.30
2023-04-23T02:47:01.300Z,3.13
2023-04-23T02:49:03.908Z,2.85
2023-04-23T02:51:08.378Z,3.50
2023-04-23T02:53:10.148Z,2.92
2023-04-23T02:55:11.966Z,3.70
2023-04-23T02:57:15.680Z,2.65
2023-04-23T02:59:17.380Z,2.40
2023-04-23T03:01:19.422Z,2.70
2023-04-23T03:03:26.872Z,3.28
2023-04-23T03:05:28.987Z,2.03
2023-04-23T03:07:31.396Z,2.60
2023-04-23T03:09:33.366Z,3.80
2023-04-23T03:11:35.226Z,2.80
2023-04-23T03:13:39.864Z,3.08
2023-04-23T03:15:41.696Z,3.05
2023-04-23T03:17:43.497Z,3.20
2023-04-23T03:19:45.221Z,2.70
2023-04-23T03:21:47.039Z,3.20
2023-04-23T03:23:48.746Z,4.82
2023-04-23T03:25:50.455Z,3.03
2023-04-23T03:27:52.915Z,3.67
2023-04-23T03:29:54.600Z,4.03
2023-04-23T03:31:56.867Z,3.45
2023-04-23T03:33:58.633Z,3.60
2023-04-23T03:36:00.361Z,2.72
2023-04-23T03:38:02.093Z,3.20
2023-04-23T03:40:07.842Z,2.17
2023-04-23T03:42:09.663Z,3.38
2023-04-23T03:44:11.352Z,2.92
2023-04-23T03:46:13.101Z,4.18
2023-04-23T03:48:14.824Z,2.75
2023-04-23T03:50:17.693Z,3.65
2023-04-23T03:52:19.490Z,3.53
2023-04-23T03:54:21.257Z,3.20
2023-04-23T03:56:24.142Z,3.42
2023-04-23T03:58:27.485Z,2.75
2023-04-23T04:00:29.253Z,3.10
2023-04-23T04:02:31.122Z,3.08
2023-04-23T04:04:33.810Z,3.30
2023-04-23T04:06:36.245Z,2.97
2023-04-23T04:08:37.903Z,3.17
2023-04-23T04:10:40.972Z,3.83
2023-04-23T04:12:45.032Z,3.28
2023-04-23T04:14:46.798Z,4.13
2023-04-23T04:16:48.929Z,2.80
2023-04-23T04:18:50.685Z,3.85
2023-04-23T04:20:53.499Z,4.28
2023-04-23T04:22:55.679Z,4.57
2023-04-23T04:24:57.669Z,4.97
2023-04-23T04:27:02.504Z,3.97
2023-04-23T04:29:04.702Z,4.80
2023-04-23T04:31:07.109Z,4.97
2023-04-23T04:33:09.168Z,4.15
2023-04-23T04:35:11.013Z,4.15
2023-04-23T04:37:13.026Z,3.65
2023-04-23T04:39:15.057Z,3.75
2023-04-23T04:41:16.885Z,3.60
2023-04-23T04:43:18.560Z,3.90
2023-04-23T04:45:20.390Z,3.60
2023-04-23T04:47:22.128Z,3.97
2023-04-23T04:49:24.020Z,5.32
2023-04-23T04:51:26.362Z,4.35
2023-04-23T04:53:28.004Z,3.70
2023-04-23T04:55:31.316Z,4.97
2023-04-23T04:57:33.046Z,4.35
2023-04-23T04:59:34.910Z,4.25
2023-04-23T05:01:37.585Z,3.78
2023-04-23T05:03:39.546Z,4.15
2023-04-23T05:05:41.400Z,4.35
2023-04-23T05:07:43.192Z,3.90
2023-04-23T05:09:45.375Z,4.15
2023-04-23T05:11:47.182Z,3.78
2023-04-23T05:13:49.134Z,4.60
2023-04-23T05:15:50.887Z,5.10
2023-04-23T05:17:54.232Z,4.50
2023-04-23T05:19:55.953Z,3.53
2023-04-23T05:21:57.741Z,3.95
2023-04-23T05:23:59.740Z,3.05
2023-04-23T05:26:03.969Z,4.22
2023-04-23T05:28:05.769Z,3.83
2023-04-23T05:30:09.627Z,4.47
2023-04-23T05:32:11.481Z,4.75
2023-04-23T05:34:13.258Z,4.15
2023-04-23T05:36:15.272Z,4.32
2023-04-23T05:38:16.988Z,4.25
2023-04-23T05:40:18.981Z,5.85
2023-04-23T05:42:20.788Z,3.50
2023-04-23T05:44:22.449Z,4.03
2023-04-23T05:46:24.345Z,3.95
2023-04-23T05:48:26.252Z,3.78
2023-04-23T05:50:28.021Z,4.65
2023-04-23T05:52:33.525Z,7.15
2023-04-23T05:54:35.302Z,4.10
2023-04-23T05:56:37.103Z,5.55
2023-04-23T05:58:39.070Z,3.95
2023-04-23T06:00:41.103Z,4.05
2023-04-23T06:02:43.417Z,4.65
2023-04-23T06:04:46.204Z,4.47
2023-04-23T06:06:48.255Z,5.15
2023-04-23T06:08:51.106Z,4.45
2023-04-23T06:10:52.923Z,3.88
2023-04-23T06:12:55.797Z,3.78
2023-04-23T06:14:57.885Z,4.07
2023-04-23T06:16:59.576Z,4.07
2023-04-23T06:19:01.230Z,3.95
2023-04-23T06:21:04.531Z,3.65
2023-04-23T06:23:06.667Z,4.00
2023-04-23T06:25:09.013Z,3.85
2023-04-23T06:27:10.846Z,3.28
2023-04-23T06:29:12.580Z,7.93
2023-04-23T06:31:14.375Z,3.70
2023-04-23T06:33:16.125Z,5.70
2023-04-23T06:35:17.887Z,5.20
2023-04-23T06:37:19.544Z,3.70
2023-04-23T06:39:21.419Z,3.45
2023-04-23T06:41:23.158Z,4.25
2023-04-23T06:43:25.091Z,3.95
2023-04-23T06:45:26.925Z,3.40
2023-04-23T06:47:28.614Z,3.20
2023-04-23T06:49:30.398Z,3.50
2023-04-23T06:51:32.292Z,3.00
2023-04-23T06:53:34.267Z,3.05
2023-04-23T06:55:36.178Z,3.78
2023-04-23T06:57:37.881Z,5.78
2023-04-23T06:59:39.605Z,4.90
2023-04-23T07:01:41.317Z,4.15
2023-04-23T07:03:45.163Z,4.93
2023-04-23T07:05:47.082Z,4.63
2023-04-23T07:07:48.784Z,8.00
2023-04-23T07:09:50.537Z,4.07
2023-04-23T07:11:52.222Z,8.38
2023-04-23T07:13:53.898Z,3.80
2023-04-23T07:15:55.632Z,3.00
2023-04-23T07:17:57.477Z,4.43
2023-04-23T07:19:59.357Z,3.08
2023-04-23T07:22:01.233Z,3.53
2023-04-23T07:24:07.314Z,3.05
2023-04-23T07:26:09.286Z,2.58
2023-04-23T07:28:10.937Z,3.03
2023-04-23T07:30:13.553Z,3.72
2023-04-23T07:32:15.462Z,3.13
2023-04-23T07:34:17.337Z,6.45
2023-04-23T07:36:19.156Z,3.17
2023-04-23T07:38:21.015Z,2.83
2023-04-23T07:40:23.334Z,2.83
2023-04-23T07:42:34.191Z,3.42
2023-04-23T07:44:36.327Z,4.10
2023-04-23T07:46:38.046Z,2.55
2023-04-23T07:48:39.813Z,4.28
2023-04-23T07:50:42.782Z,2.42
2023-04-23T07:52:44.458Z,3.15
2023-04-23T07:54:46.476Z,3.38
2023-04-23T07:56:48.228Z,2.92
2023-04-23T07:58:50.063Z,3.25
2023-04-23T08:00:51.781Z,5.15
2023-04-23T08:02:53.957Z,7.63
2023-04-23T08:04:56.018Z,3.60
2023-04-23T08:06:58.891Z,3.15
2023-04-23T08:09:00.702Z,2.85
2023-04-23T08:11:02.545Z,4.22
2023-04-23T08:13:04.338Z,3.03
2023-04-23T08:15:06.628Z,2.55
2023-04-23T08:17:11.311Z,3.92
2023-04-23T08:19:13.037Z,4.07
2023-04-23T08:21:15.202Z,3.42
2023-04-23T08:23:17.580Z,2.40
2023-04-23T08:25:20.998Z,4.68
2023-04-23T08:27:22.868Z,3.55
2023-04-23T08:29:24.625Z,2.17
2023-04-23T08:31:27.581Z,4.10
2023-04-23T08:33:29.427Z,3.05
2023-04-23T08:35:31.141Z,2.20
2023-04-23T08:37:34.463Z,4.95
2023-04-23T08:39:36.237Z,3.38
2023-04-23T08:41:43.126Z,3.42
2023-04-23T08:44:28.928Z,2.85
2023-04-23T08:46:48.892Z,3.10
2023-04-23T08:48:52.692Z,2.78
2023-04-23T08:50:54.487Z,3.28
2023-04-23T08:52:57.221Z,2.05
2023-04-23T08:55:01.467Z,1.95
2023-04-23T08:57:03.497Z,1.60
2023-04-23T08:59:06.782Z,1.80
2023-04-23T09:01:08.868Z,1.98
2023-04-23T09:03:11.028Z,1.40
2023-04-23T09:05:13.638Z,2.80
2023-04-23T09:07:15.838Z,2.08
2023-04-23T09:09:18.172Z,5.03
2023-04-23T09:11:21.014Z,2.42
2023-04-23T09:13:23.556Z,2.92
2023-04-23T09:15:25.374Z,1.63
2023-04-23T09:17:29.469Z,1.52
2023-04-23T09:19:31.519Z,2.53
2023-04-23T09:21:34.007Z,2.72
2023-04-23T09:23:39.637Z,3.72
2023-04-23T09:25:41.776Z,1.88
2023-04-23T09:27:47.228Z,1.55
2023-04-23T09:29:53.215Z,2.25
2023-04-23T09:31:56.635Z,2.45
2023-04-23T09:34:01.442Z,2.92
2023-04-23T09:36:11.939Z,1.40
2023-04-23T09:38:13.642Z,4.88
2023-04-23T09:40:20.279Z,1.30
2023-04-23T09:42:24.145Z,3.20
2023-04-23T09:44:27.070Z,2.42
2023-04-23T09:46:38.568Z,2.45
2023-04-23T09:48:43.607Z,4.55
2023-04-23T09:50:45.431Z,2.72
2023-04-23T09:52:55.380Z,1.92
2023-04-23T09:54:59.347Z,3.10
2023-04-23T09:57:04.180Z,1.70
2023-04-23T09:59:29.325Z,1.92
2023-04-23T10:01:34.178Z,1.30
2023-04-23T10:03:36.158Z,1.65
2023-04-23T10:05:56.185Z,2.35
2023-04-23T10:08:03.916Z,1.42
2023-04-23T10:10:06.911Z,1.33
2023-04-23T10:12:20.771Z,1.77
2023-04-23T10:14:31.493Z,1.60
2023-04-23T10:16:42.342Z,5.05
2023-04-23T10:18:55.634Z,1.52
2023-04-23T10:20:58.176Z,2.85
2023-04-23T10:23:00.987Z,1.63
2023-04-23T10:25:09.717Z,1.10
2023-04-23T10:27:24.810Z,1.45
2023-04-23T10:29:33.660Z,1.42
2023-04-23T10:31:36.575Z,2.25
2023-04-23T10:33:49.442Z,1.30
2023-04-23T10:35:58.355Z,1.52
2023-04-23T10:38:00.110Z,1.48
2023-04-23T10:40:09.277Z,1.52
2023-04-23T10:42:13.716Z,1.10
2023-04-23T10:44:32.992Z,2.05
2023-04-23T10:46:55.270Z,2.70
2023-04-23T10:49:15.200Z,1.48
2023-04-23T10:52:02.568Z,0.80
2023-04-23T10:53:38.731Z,1.63
2023-04-23T10:55:41.901Z,1.05
2023-04-23T10:58:01.228Z,0.98
2023-04-23T11:00:04.760Z,1.33
2023-04-23T11:02:13.447Z,1.08
2023-04-23T11:04:26.138Z,2.38
2023-04-23T11:06:50.331Z,1.92
2023-04-23T11:08:56.848Z,1.65
2023-04-23T11:11:00.221Z,2.17
2023-04-23T11:13:22.474Z,2.75
2023-04-23T11:15:24.997Z,1.35
2023-04-23T11:17:32.920Z,3.15
2023-04-23T11:19:38.807Z,2.65
2023-04-23T11:22:02.656Z,0.98
2023-04-23T11:24:07.729Z,1.85
2023-04-23T11:26:09.549Z,1.52
2023-04-23T11:28:11.348Z,1.65
2023-04-23T11:30:15.680Z,1.60
2023-04-23T11:32:17.856Z,2.05
2023-04-23T11:34:19.993Z,2.35
2023-04-23T11:36:22.875Z,1.10
2023-04-23T11:38:33.699Z,0.93
2023-04-23T11:40:35.638Z,1.83
2023-04-23T11:42:47.426Z,0.68
2023-04-23T11:44:49.210Z,6.82
2023-04-23T11:46:51.176Z,1.08
2023-04-23T11:48:53.079Z,1.08
2023-04-23T11:50:54.829Z,2.45
2023-04-23T11:52:57.043Z,1.30
2023-04-23T11:55:03.402Z,1.00
2023-04-23T11:57:05.989Z,0.85
2023-04-23T11:59:08.170Z,0.60
2023-04-23T12:01:15.186Z,0.88
2023-04-23T12:03:17.419Z,1.63
2023-04-23T12:05:41.153Z,0.70
2023-04-23T12:07:43.329Z,1.90
2023-04-23T12:09:46.154Z,2.15
2023-04-23T12:11:50.863Z,2.20
2023-04-23T12:13:54.007Z,0.93
2023-04-23T12:16:03.683Z,0.98
2023-04-23T12:18:11.929Z,0.60
2023-04-23T12:20:18.441Z,3.28
2023-04-23T12:22:28.277Z,1.13
2023-04-23T12:24:47.591Z,6.45
2023-04-23T12:26:51.140Z,4.80
2023-04-23T12:28:59.204Z,0.85
2023-04-23T12:31:02.550Z,0.85
2023-04-23T12:33:06.784Z,1.13
2023-04-23T12:35:10.177Z,1.20
2023-04-23T12:37:11.863Z,1.85
2023-04-23T12:39:40.074Z,1.60
2023-04-23T12:41:41.907Z,1.52
2023-04-23T12:43:48.701Z,1.30
2023-04-23T12:45:51.327Z,1.75
2023-04-23T12:47:53.854Z,0.80
2023-04-23T12:49:56.927Z,1.20
2023-04-23T12:52:02.780Z,1.17
2023-04-23T12:54:04.756Z,1.13
2023-04-23T12:56:06.597Z,2.13
2023-04-23T12:58:08.290Z,1.05
2023-04-23T13:00:11.339Z,2.42
2023-04-23T13:02:13.318Z,0.90
2023-04-23T13:04:15.082Z,1.92
2023-04-23T13:06:16.765Z,1.90
2023-04-23T13:08:18.406Z,1.60
2023-04-23T13:10:20.326Z,0.80
2023-04-23T13:12:22.023Z,0.80
2023-04-23T13:14:23.796Z,0.60
2023-04-23T13:16:25.699Z,0.70
2023-04-23T13:18:27.479Z,1.23
2023-04-23T13:20:29.291Z,1.17
2023-04-23T13:22:31.594Z,1.75
2023-04-23T13:24:36.519Z,1.05
2023-04-23T13:26:38.279Z,1.13
2023-04-23T13:28:40.090Z,0.75
2023-04-23T13:30:41.782Z,1.00
2023-04-23T13:32:43.524Z,0.77
2023-04-23T13:34:45.566Z,0.55
2023-04-23T13:36:47.434Z,0.80
2023-04-23T13:38:49.192Z,1.05
2023-04-23T13:40:51.337Z,0.75
2023-04-23T13:42:55.068Z,0.60
2023-04-23T13:44:57.091Z,1.00
2023-04-23T13:46:59.442Z,0.60
2023-04-23T13:49:01.392Z,0.40
2023-04-23T13:51:03.468Z,0.70
2023-04-23T13:53:06.816Z,0.60
2023-04-23T13:55:10.037Z,1.50
2023-04-23T13:57:11.775Z,0.60
2023-04-23T13:59:20.070Z,0.80
2023-04-23T14:01:22.797Z,0.90
2023-04-23T14:03:24.681Z,0.40
2023-04-23T14:05:26.503Z,0.60
2023-04-23T14:07:28.161Z,0.63
2023-04-23T14:09:30.147Z,0.88
2023-04-23T14:11:31.965Z,1.05
2023-04-23T14:13:33.721Z,1.20
2023-04-23T14:15:35.828Z,1.13
2023-04-23T14:17:39.315Z,1.60
2023-04-23T14:19:41.286Z,1.08
2023-04-23T14:21:43.330Z,0.50
2023-04-23T14:23:51.548Z,0.77
2023-04-23T14:26:03.612Z,2.58
2023-04-23T14:28:24.454Z,2.97
2023-04-23T14:30:28.299Z,2.05
2023-04-23T14:32:30.271Z,0.63
2023-04-23T14:34:32.397Z,1.33
2023-04-23T14:36:34.300Z,1.40
2023-04-23T14:38:36.578Z,0.93
2023-04-23T14:40:38.312Z,0.65
2023-04-23T14:43:16.724Z,0.60
2023-04-23T14:45:22.088Z,0.90
2023-04-23T14:47:23.959Z,2.25
2023-04-23T14:49:25.783Z,0.77
2023-04-23T14:51:27.663Z,0.70
2023-04-23T14:53:29.678Z,1.17
2023-04-23T14:55:31.464Z,1.58
2023-04-23T14:57:33.122Z,2.97
2023-04-23T14:59:34.765Z,1.80
2023-04-23T15:01:36.544Z,1.98
2023-04-23T15:03:38.520Z,1.77
2023-04-23T15:05:41.773Z,9.25
2023-04-23T15:07:44.050Z,1.42
2023-04-23T15:09:45.754Z,1.23
2023-04-23T15:11:47.490Z,1.75
2023-04-23T15:13:55.547Z,2.45
2023-04-23T15:16:02.466Z,0.82
2023-04-23T15:18:05.396Z,1.13
2023-04-23T15:20:07.611Z,1.15
2023-04-23T15:22:09.347Z,2.10
2023-04-23T15:24:11.069Z,1.77
2023-04-23T15:26:13.145Z,3.67
2023-04-23T15:28:14.894Z,1.40
2023-04-23T15:30:16.672Z,3.95
2023-04-23T15:32:18.331Z,2.25
2023-04-23T15:34:20.078Z,1.25
2023-04-23T15:36:21.984Z,1.45
2023-04-23T15:38:23.660Z,2.60
2023-04-23T15:40:26.521Z,4.18
2023-04-23T15:42:28.195Z,2.13
2023-04-23T15:44:32.996Z,1.42
2023-04-23T15:46:34.766Z,1.40
2023-04-23T15:48:39.086Z,1.25
2023-04-23T15:50:40.800Z,1.98
2023-04-23T15:52:42.700Z,1.40
2023-04-23T15:54:45.233Z,2.40
2023-04-23T15:56:46.990Z,1.55
2023-04-23T15:58:49.461Z,1.60
2023-04-23T16:00:51.284Z,0.65
2023-04-23T16:02:53.211Z,1.30
2023-04-23T16:04:55.040Z,1.13
2023-04-23T16:06:56.774Z,0.90
2023-04-23T16:09:02.404Z,1.48
2023-04-23T16:11:04.711Z,0.95
2023-04-23T16:13:06.608Z,2.50
2023-04-23T16:15:09.401Z,1.17
2023-04-23T16:17:11.174Z,0.82
2023-04-23T16:19:12.894Z,1.00
2023-04-23T16:21:14.707Z,0.60
2023-04-23T16:23:16.420Z,0.93
2023-04-23T16:25:18.390Z,1.40
2023-04-23T16:27:20.227Z,1.45
2023-04-23T16:29:22.987Z,1.27
2023-04-23T16:31:25.078Z,0.90
2023-04-23T16:33:27.439Z,1.08
2023-04-23T16:35:29.132Z,0.88
2023-04-23T16:37:30.935Z,3.15
2023-04-23T16:39:33.261Z,1.33
2023-04-23T16:41:35.177Z,0.93
2023-04-23T16:43:36.897Z,0.90
2023-04-23T16:45:39.841Z,1.05
2023-04-23T16:47:43.740Z,0.95
2023-04-23T16:49:45.576Z,1.33
2023-04-23T16:51:47.346Z,1.02
2023-04-23T16:53:49.443Z,0.80
2023-04-23T16:55:51.371Z,1.25
2023-04-23T16:57:53.067Z,1.35
2023-04-23T16:59:54.778Z,0.93
2023-04-23T17:01:56.584Z,0.77
2023-04-23T17:03:58.387Z,0.60
2023-04-23T17:06:09.956Z,0.80
2023-04-23T17:08:11.644Z,1.13
2023-04-23T17:10:15.449Z,1.20
2023-04-23T17:12:17.146Z,0.70
2023-04-23T17:14:18.866Z,0.73
2023-04-23T17:16:20.924Z,1.38
2023-04-23T17:18:22.662Z,0.90
2023-04-23T17:20:24.382Z,1.05
2023-04-23T17:22:26.171Z,0.70
2023-04-23T17:24:28.063Z,1.55
2023-04-23T17:26:29.789Z,1.10
2023-04-23T17:28:31.590Z,0.60
2023-04-23T17:30:33.431Z,0.60
2023-04-23T17:32:35.145Z,1.35
2023-04-23T17:34:36.973Z,9.98
2023-04-23T17:36:38.722Z,1.52
2023-04-23T17:38:41.047Z,1.67
2023-04-23T17:40:43.226Z,2.25
2023-04-23T17:42:44.897Z,1.17
2023-04-23T17:44:46.718Z,1.00
2023-04-23T17:46:53.493Z,0.88
2023-04-23T17:48:55.752Z,1.48
2023-04-23T17:50:57.455Z,0.80
2023-04-23T17:52:59.167Z,0.73
2023-04-23T17:55:00.974Z,0.82
2023-04-23T17:57:02.828Z,0.88
2023-04-23T17:59:04.573Z,2.13
2023-04-23T18:01:08.198Z,1.00
2023-04-23T18:03:11.918Z,2.53
2023-04-23T18:05:15.282Z,2.83
2023-04-23T18:07:16.969Z,1.50
2023-04-23T18:09:18.654Z,1.83
2023-04-23T18:11:20.396Z,2.13
2023-04-23T18:13:22.091Z,2.00
2023-04-23T18:15:25.902Z,1.58
2023-04-23T18:17:28.094Z,0.90
2023-04-23T18:19:31.001Z,1.10
2023-04-23T18:21:33.915Z,1.00
2023-04-23T18:23:36.095Z,1.75
2023-04-23T18:25:38.177Z,0.60
2023-04-23T18:27:40.095Z,0.90
2023-04-23T18:29:42.038Z,0.73
2023-04-23T18:31:43.832Z,0.70
2023-04-23T18:33:53.640Z,1.10
2023-04-23T18:35:59.918Z,1.17
2023-04-23T18:38:07.800Z,1.38
2023-04-23T18:40:10.685Z,1.30
2023-04-23T18:42:12.387Z,0.63
2023-04-23T18:44:14.357Z,1.08
2023-04-23T18:46:16.481Z,0.57
2023-04-23T18:48:33.452Z,1.13
2023-04-23T18:50:43.509Z,0.90
2023-04-23T18:52:45.233Z,1.45
2023-04-23T18:54:46.935Z,2.25
2023-04-23T18:56:52.905Z,1.42
2023-04-23T18:58:54.681Z,1.05
2023-04-23T19:00:56.958Z,1.00
2023-04-23T19:02:58.796Z,1.45
2023-04-23T19:05:00.694Z,1.77
2023-04-23T19:07:02.363Z,1.25
2023-04-23T19:09:04.339Z,1.80
2023-04-23T19:11:06.488Z,1.10
2023-04-23T19:13:08.302Z,0.90
2023-04-23T19:15:11.049Z,1.55
2023-04-23T19:17:12.779Z,0.82
2023-04-23T19:19:14.432Z,1.23
2023-04-23T19:21:16.224Z,3.78
2023-04-23T19:23:17.993Z,1.10
2023-04-23T19:25:19.794Z,1.00
2023-04-23T19:27:21.781Z,2.65
2023-04-23T19:29:25.012Z,1.13
2023-04-23T19:31:29.105Z,1.45
2023-04-23T19:33:30.916Z,1.85
2023-04-23T19:35:32.706Z,1.45
2023-04-23T19:37:36.036Z,1.25
2023-04-23T19:39:37.877Z,1.77
2023-04-23T19:41:39.610Z,1.25
2023-04-23T19:43:41.551Z,1.35
2023-04-23T19:45:43.295Z,1.42
2023-04-23T19:47:45.117Z,1.10
2023-04-23T19:49:47.093Z,3.40
2023-04-23T19:51:49.344Z,1.63
2023-04-23T19:53:51.378Z,4.22
2023-04-23T19:55:53.084Z,1.70
2023-04-23T19:57:55.186Z,0.90
2023-04-23T19:59:56.952Z,1.08
2023-04-23T20:01:58.644Z,1.20
2023-04-23T20:04:00.683Z,2.15
2023-04-23T20:06:02.468Z,1.73
2023-04-23T20:08:11.244Z,0.65
2023-04-23T20:10:13.049Z,1.13
2023-04-23T20:12:15.148Z,2.80
2023-04-23T20:14:16.859Z,1.20
2023-04-23T20:16:20.441Z,1.70
2023-04-23T20:18:22.169Z,1.88
2023-04-23T20:20:25.698Z,1.42
2023-04-23T20:22:30.905Z,0.77
2023-04-23T20:24:32.710Z,0.88
2023-04-23T20:26:38.152Z,3.67
2023-04-23T20:28:40.177Z,1.30
2023-04-23T20:30:41.934Z,1.20
2023-04-23T20:32:43.703Z,1.08
2023-04-23T20:34:45.600Z,1.50
2023-04-23T20:36:47.455Z,4.63
2023-04-23T20:38:49.880Z,1.30
2023-04-23T20:40:51.997Z,0.82
2023-04-23T20:42:58.643Z,1.27
2023-04-23T20:45:00.652Z,0.85
2023-04-23T20:47:05.771Z,1.10
2023-04-23T20:49:07.508Z,1.08
2023-04-23T20:51:09.424Z,2.92
2023-04-23T20:53:11.097Z,1.75
2023-04-23T20:55:12.871Z,1.10
2023-04-23T20:57:14.628Z,1.48
2023-04-23T20:59:16.335Z,1.00
2023-04-23T21:01:20.860Z,1.92
2023-04-23T21:03:22.681Z,1.20
2023-04-23T21:05:24.452Z,1.05
2023-04-23T21:07:26.133Z,1.20
2023-04-23T21:09:27.809Z,1.23
2023-04-23T21:11:29.707Z,1.85
2023-04-23T21:13:31.401Z,2.47
2023-04-23T21:15:35.278Z,3.50
2023-04-23T21:17:37.072Z,3.38
2023-04-23T21:19:38.807Z,2.10
2023-04-23T21:21:40.531Z,3.50
2023-04-23T21:23:42.187Z,2.95
2023-04-23T21:25:43.919Z,3.30
2023-04-23T21:27:48.576Z,1.48
2023-04-23T21:29:50.817Z,1.30
2023-04-23T21:31:52.950Z,1.55
2023-04-23T21:33:56.737Z,1.30
2023-04-23T21:35:59.132Z,2.65
2023-04-23T21:38:01.204Z,1.05
2023-04-23T21:40:03.048Z,1.80
2023-04-23T21:42:07.914Z,3.42
2023-04-23T21:44:09.582Z,1.40
2023-04-23T21:46:11.446Z,1.17
2023-04-23T21:48:13.284Z,1.58
2023-04-23T21:50:17.554Z,1.13
2023-04-23T21:52:20.209Z,1.25
2023-04-23T21:54:22.124Z,1.10
2023-04-23T21:56:23.951Z,1.63
2023-04-23T21:58:25.788Z,1.25
2023-04-23T22:00:28.397Z,2.80
2023-04-23T22:02:30.152Z,3.28
2023-04-23T22:04:31.921Z,5.40
2023-04-23T22:06:34.489Z,1.48
2023-04-23T22:08:38.257Z,1.58
2023-04-23T22:10:43.314Z,1.85
2023-04-23T22:12:46.340Z,2.42
2023-04-23T22:14:48.027Z,4.50
2023-04-23T22:16:51.270Z,1.20
2023-04-23T22:18:53.723Z,0.80
2023-04-23T22:20:55.605Z,1.52
2023-04-23T22:22:57.255Z,1.10
2023-04-23T22:24:59.045Z,1.23
2023-04-23T22:27:02.039Z,1.83
2023-04-23T22:29:03.733Z,1.38
2023-04-23T22:31:05.500Z,1.25
2023-04-23T22:33:07.149Z,1.10
2023-04-23T22:35:09.425Z,3.08
2023-04-23T22:37:11.250Z,2.97
2023-04-23T22:39:13.023Z,1.20
2023-04-23T22:41:14.711Z,1.52
2023-04-23T22:43:16.451Z,0.98
2023-04-23T22:45:18.169Z,1.25
2023-04-23T22:47:20.076Z,1.70
2023-04-23T22:49:21.804Z,1.80
2023-04-23T22:51:23.703Z,1.98
2023-04-23T22:53:25.580Z,1.33
2023-04-23T22:55:27.266Z,0.90
2023-04-23T22:57:29.240Z,2.25
2023-04-23T22:59:31.144Z,1.67
2023-04-23T23:01:32.952Z,2.13
2023-04-23T23:03:34.731Z,1.35
2023-04-23T23:05:36.735Z,1.15
2023-04-23T23:07:38.708Z,2.58
2023-04-23T23:09:40.637Z,1.23
2023-04-23T23:11:42.540Z,1.98
2023-04-23T23:13:45.426Z,1.35
2023-04-23T23:15:47.195Z,1.10
2023-04-23T23:17:49.114Z,0.95
2023-04-23T23:19:50.886Z,1.00
2023-04-23T23:21:52.690Z,0.95
2023-04-23T23:23:54.344Z,1.08
2023-04-23T23:25:58.250Z,1.45
2023-04-23T23:28:01.592Z,0.82
2023-04-23T23:30:06.017Z,0.80
2023-04-23T23:32:07.714Z,1.15
2023-04-23T23:34:09.480Z,1.52
2023-04-23T23:36:12.112Z,1.35
2023-04-23T23:38:14.132Z,1.25
2023-04-23T23:40:15.919Z,3.17
2023-04-23T23:42:17.552Z,2.00
2023-04-23T23:44:19.266Z,2.70
2023-04-23T23:46:21.075Z,1.30
2023-04-23T23:48:22.808Z,1.75
2023-04-23T23:50:24.623Z,1.50
2023-04-23T23:52:26.302Z,1.38
2023-04-23T23:54:28.052Z,1.67
2023-04-23T23:56:29.792Z,2.10
2023-04-23T23:58:31.471Z,1.33
